sensor_id;sensor_type;location;lat;lon;timestamp;P1;durP1;ratioP1;P2;durP2;ratioP2
49764;SDS011;35657;51.204;-4.130;2022-11-15T00:01:38;3.75;;;0.98;;
49764;SDS011;35657;51.204;-4.130;2022-11-15T00:04:04;1.00;;;0.68;;
49764;SDS011;35657;51.204;-4.130;2022-11-15T00:06:30;2.38;;;0.73;;
49764;SDS011;35657;51.204;-4.130;2022-11-15T00:08:57;5.97;;;0.63;;
49764;SDS011;35657;51.204;-4.130;2022-11-15T00:11:24;0.82;;;0.50;;
49764;SDS011;35657;51.204;-4.130;2022-11-15T00:13:50;1.52;;;0.80;;
49764;SDS011;35657;51.204;-4.130;2022-11-15T00:16:16;1.60;;;0.55;;
49764;SDS011;35657;51.204;-4.130;2022-11-15T00:18:41;3.75;;;0.60;;
49764;SDS011;35657;51.204;-4.130;2022-11-15T00:21:09;9.45;;;0.50;;
49764;SDS011;35657;51.204;-4.130;2022-11-15T00:23:36;1.75;;;0.60;;
49764;SDS011;35657;51.204;-4.130;2022-11-15T00:26:02;3.53;;;0.70;;
49764;SDS011;35657;51.204;-4.130;2022-11-15T00:28:28;3.22;;;0.73;;
49764;SDS011;35657;51.204;-4.130;2022-11-15T00:30:59;2.63;;;0.65;;
49764;SDS011;35657;51.204;-4.130;2022-11-15T00:33:26;1.15;;;0.50;;
49764;SDS011;35657;51.204;-4.130;2022-11-15T00:35:52;1.45;;;0.40;;
49764;SDS011;35657;51.204;-4.130;2022-11-15T00:38:18;0.85;;;0.40;;
49764;SDS011;35657;51.204;-4.130;2022-11-15T00:40:44;1.08;;;0.52;;
49764;SDS011;35657;51.204;-4.130;2022-11-15T00:43:09;0.98;;;0.38;;
49764;SDS011;35657;51.204;-4.130;2022-11-15T00:45:35;0.98;;;0.38;;
49764;SDS011;35657;51.204;-4.130;2022-11-15T00:48:00;1.33;;;0.50;;
49764;SDS011;35657;51.204;-4.130;2022-11-15T00:50:26;0.90;;;0.75;;
49764;SDS011;35657;51.204;-4.130;2022-11-15T00:52:52;2.20;;;0.50;;
49764;SDS011;35657;51.204;-4.130;2022-11-15T00:55:18;1.25;;;0.38;;
49764;SDS011;35657;51.204;-4.130;2022-11-15T00:57:44;0.57;;;0.30;;
49764;SDS011;35657;51.204;-4.130;2022-11-15T01:00:11;1.30;;;0.28;;
49764;SDS011;35657;51.204;-4.130;2022-11-15T01:02:37;0.43;;;0.20;;
49764;SDS011;35657;51.204;-4.130;2022-11-15T01:05:03;1.90;;;0.50;;
49764;SDS011;35657;51.204;-4.130;2022-11-15T01:07:29;0.40;;;0.30;;
49764;SDS011;35657;51.204;-4.130;2022-11-15T01:09:55;0.20;;;0.20;;
49764;SDS011;35657;51.204;-4.130;2022-11-15T01:12:21;0.57;;;0.30;;
49764;SDS011;35657;51.204;-4.130;2022-11-15T01:14:46;0.25;;;0.20;;
49764;SDS011;35657;51.204;-4.130;2022-11-15T01:17:12;0.15;;;0.13;;
49764;SDS011;35657;51.204;-4.130;2022-11-15T01:19:38;0.20;;;0.20;;
49764;SDS011;35657;51.204;-4.130;2022-11-15T01:22:03;0.40;;;0.20;;
49764;SDS011;35657;51.204;-4.130;2022-11-15T01:24:29;0.70;;;0.28;;
49764;SDS011;35657;51.204;-4.130;2022-11-15T01:26:55;1.08;;;0.40;;
49764;SDS011;35657;51.204;-4.130;2022-11-15T01:29:20;0.20;;;0.20;;
49764;SDS011;35657;51.204;-4.130;2022-11-15T01:31:46;0.73;;;0.20;;
49764;SDS011;35657;51.204;-4.130;2022-11-15T01:34:12;0.20;;;0.20;;
49764;SDS011;35657;51.204;-4.130;2022-11-15T01:36:37;0.30;;;0.30;;
49764;SDS011;35657;51.204;-4.130;2022-11-15T01:39:03;0.20;;;0.20;;
49764;SDS011;35657;51.204;-4.130;2022-11-15T01:41:30;0.45;;;0.40;;
49764;SDS011;35657;51.204;-4.130;2022-11-15T01:44:30;0.77;;;0.20;;
49764;SDS011;35657;51.204;-4.130;2022-11-15T01:47:03;0.30;;;0.20;;
49764;SDS011;35657;51.204;-4.130;2022-11-15T01:49:33;0.88;;;0.25;;
49764;SDS011;35657;51.204;-4.130;2022-11-15T01:52:05;0.20;;;0.20;;
49764;SDS011;35657;51.204;-4.130;2022-11-15T01:54:34;1.85;;;0.30;;
49764;SDS011;35657;51.204;-4.130;2022-11-15T01:57:04;0.32;;;0.20;;
49764;SDS011;35657;51.204;-4.130;2022-11-15T01:59:33;0.40;;;0.30;;
49764;SDS011;35657;51.204;-4.130;2022-11-15T02:01:59;0.93;;;0.40;;
49764;SDS011;35657;51.204;-4.130;2022-11-15T02:04:29;0.75;;;0.30;;
49764;SDS011;35657;51.204;-4.130;2022-11-15T02:06:57;1.48;;;0.30;;
49764;SDS011;35657;51.204;-4.130;2022-11-15T02:09:24;0.40;;;0.20;;
49764;SDS011;35657;51.204;-4.130;2022-11-15T02:11:50;1.50;;;0.30;;
49764;SDS011;35657;51.204;-4.130;2022-11-15T02:14:19;0.73;;;0.30;;
49764;SDS011;35657;51.204;-4.130;2022-11-15T02:16:52;2.25;;;0.20;;
49764;SDS011;35657;51.204;-4.130;2022-11-15T02:27:24;2.00;;;0.32;;
49764;SDS011;35657;51.204;-4.130;2022-11-15T02:43:39;1.45;;;0.30;;
49764;SDS011;35657;51.204;-4.130;2022-11-15T02:49:33;2.53;;;0.20;;
49764;SDS011;35657;51.204;-4.130;2022-11-15T02:52:01;0.35;;;0.30;;
49764;SDS011;35657;51.204;-4.130;2022-11-15T02:54:31;0.10;;;0.10;;
49764;SDS011;35657;51.204;-4.130;2022-11-15T02:57:06;1.33;;;0.15;;
49764;SDS011;35657;51.204;-4.130;2022-11-15T03:13:39;2.80;;;1.52;;
49764;SDS011;35657;51.204;-4.130;2022-11-15T03:16:37;0.17;;;0.17;;
49764;SDS011;35657;51.204;-4.130;2022-11-15T03:19:13;0.20;;;0.20;;
49764;SDS011;35657;51.204;-4.130;2022-11-15T03:22:06;0.10;;;0.10;;
49764;SDS011;35657;51.204;-4.130;2022-11-15T03:24:36;4.43;;;0.60;;
49764;SDS011;35657;51.204;-4.130;2022-11-15T03:27:05;0.70;;;0.22;;
49764;SDS011;35657;51.204;-4.130;2022-11-15T03:29:38;0.38;;;0.20;;
49764;SDS011;35657;51.204;-4.130;2022-11-15T03:32:12;2.08;;;0.25;;
49764;SDS011;35657;51.204;-4.130;2022-11-15T03:37:21;0.45;;;0.15;;
49764;SDS011;35657;51.204;-4.130;2022-11-15T03:39:51;0.35;;;0.17;;
49764;SDS011;35657;51.204;-4.130;2022-11-15T03:47:36;0.30;;;0.20;;
49764;SDS011;35657;51.204;-4.130;2022-11-15T03:50:12;0.43;;;0.20;;
49764;SDS011;35657;51.204;-4.130;2022-11-15T03:52:44;0.10;;;0.10;;
49764;SDS011;35657;51.204;-4.130;2022-11-15T03:55:13;0.38;;;0.30;;
49764;SDS011;35657;51.204;-4.130;2022-11-15T03:57:41;0.85;;;0.20;;
49764;SDS011;35657;51.204;-4.130;2022-11-15T04:00:07;0.10;;;0.10;;
49764;SDS011;35657;51.204;-4.130;2022-11-15T04:02:35;0.10;;;0.10;;
49764;SDS011;35657;51.204;-4.130;2022-11-15T04:05:01;0.10;;;0.10;;
49764;SDS011;35657;51.204;-4.130;2022-11-15T04:07:27;0.35;;;0.20;;
49764;SDS011;35657;51.204;-4.130;2022-11-15T04:09:53;0.10;;;0.10;;
49764;SDS011;35657;51.204;-4.130;2022-11-15T04:12:28;0.38;;;0.20;;
49764;SDS011;35657;51.204;-4.130;2022-11-15T04:17:38;0.17;;;0.13;;
49764;SDS011;35657;51.204;-4.130;2022-11-15T04:22:55;0.30;;;0.10;;
49764;SDS011;35657;51.204;-4.130;2022-11-15T04:25:41;0.43;;;0.20;;
49764;SDS011;35657;51.204;-4.130;2022-11-15T04:28:07;0.10;;;0.10;;
49764;SDS011;35657;51.204;-4.130;2022-11-15T04:30:33;0.28;;;0.10;;
49764;SDS011;35657;51.204;-4.130;2022-11-15T04:32:59;2.67;;;0.20;;
49764;SDS011;35657;51.204;-4.130;2022-11-15T04:35:24;0.10;;;0.10;;
49764;SDS011;35657;51.204;-4.130;2022-11-15T04:37:50;0.10;;;0.10;;
49764;SDS011;35657;51.204;-4.130;2022-11-15T04:40:16;0.10;;;0.10;;
49764;SDS011;35657;51.204;-4.130;2022-11-15T04:42:42;1.15;;;0.20;;
49764;SDS011;35657;51.204;-4.130;2022-11-15T04:45:08;0.10;;;0.10;;
49764;SDS011;35657;51.204;-4.130;2022-11-15T04:47:34;0.68;;;0.20;;
49764;SDS011;35657;51.204;-4.130;2022-11-15T04:50:00;1.80;;;0.45;;
49764;SDS011;35657;51.204;-4.130;2022-11-15T04:52:26;1.38;;;0.50;;
49764;SDS011;35657;51.204;-4.130;2022-11-15T04:54:52;0.20;;;0.20;;
49764;SDS011;35657;51.204;-4.130;2022-11-15T04:57:17;0.30;;;0.30;;
49764;SDS011;35657;51.204;-4.130;2022-11-15T04:59:43;1.50;;;0.32;;
49764;SDS011;35657;51.204;-4.130;2022-11-15T05:02:09;0.30;;;0.20;;
49764;SDS011;35657;51.204;-4.130;2022-11-15T05:04:35;0.85;;;0.47;;
49764;SDS011;35657;51.204;-4.130;2022-11-15T05:07:00;0.20;;;0.20;;
49764;SDS011;35657;51.204;-4.130;2022-11-15T05:09:27;0.30;;;0.22;;
49764;SDS011;35657;51.204;-4.130;2022-11-15T05:11:53;0.30;;;0.30;;
49764;SDS011;35657;51.204;-4.130;2022-11-15T05:14:18;0.28;;;0.17;;
49764;SDS011;35657;51.204;-4.130;2022-11-15T05:16:44;2.00;;;0.40;;
49764;SDS011;35657;51.204;-4.130;2022-11-15T05:19:10;4.57;;;0.95;;
49764;SDS011;35657;51.204;-4.130;2022-11-15T05:21:36;3.75;;;0.98;;
49764;SDS011;35657;51.204;-4.130;2022-11-15T05:24:02;6.47;;;1.08;;
49764;SDS011;35657;51.204;-4.130;2022-11-15T05:26:28;7.32;;;1.25;;
49764;SDS011;35657;51.204;-4.130;2022-11-15T05:28:54;3.35;;;1.10;;
49764;SDS011;35657;51.204;-4.130;2022-11-15T05:31:21;0.85;;;0.40;;
49764;SDS011;35657;51.204;-4.130;2022-11-15T05:33:48;3.22;;;0.93;;
49764;SDS011;35657;51.204;-4.130;2022-11-15T05:36:29;5.63;;;0.63;;
49764;SDS011;35657;51.204;-4.130;2022-11-15T05:39:07;2.58;;;0.70;;
49764;SDS011;35657;51.204;-4.130;2022-11-15T05:41:35;2.97;;;0.73;;
49764;SDS011;35657;51.204;-4.130;2022-11-15T05:44:07;4.45;;;0.90;;
49764;SDS011;35657;51.204;-4.130;2022-11-15T05:46:35;6.65;;;1.00;;
49764;SDS011;35657;51.204;-4.130;2022-11-15T05:49:03;5.72;;;1.48;;
49764;SDS011;35657;51.204;-4.130;2022-11-15T05:51:31;6.03;;;1.00;;
49764;SDS011;35657;51.204;-4.130;2022-11-15T05:53:57;2.00;;;0.35;;
49764;SDS011;35657;51.204;-4.130;2022-11-15T05:56:24;4.15;;;1.08;;
49764;SDS011;35657;51.204;-4.130;2022-11-15T05:58:51;6.75;;;1.23;;
49764;SDS011;35657;51.204;-4.130;2022-11-15T06:01:20;2.90;;;0.52;;
49764;SDS011;35657;51.204;-4.130;2022-11-15T06:03:46;5.05;;;1.00;;
49764;SDS011;35657;51.204;-4.130;2022-11-15T06:06:12;9.85;;;1.45;;
49764;SDS011;35657;51.204;-4.130;2022-11-15T06:08:38;7.38;;;1.42;;
49764;SDS011;35657;51.204;-4.130;2022-11-15T06:11:04;8.57;;;1.45;;
49764;SDS011;35657;51.204;-4.130;2022-11-15T06:13:31;5.68;;;1.13;;
49764;SDS011;35657;51.204;-4.130;2022-11-15T06:15:57;8.27;;;1.15;;
49764;SDS011;35657;51.204;-4.130;2022-11-15T06:18:23;8.05;;;1.02;;
49764;SDS011;35657;51.204;-4.130;2022-11-15T06:20:49;7.68;;;1.23;;
49764;SDS011;35657;51.204;-4.130;2022-11-15T06:23:15;4.38;;;1.45;;
49764;SDS011;35657;51.204;-4.130;2022-11-15T06:25:41;8.90;;;1.77;;
49764;SDS011;35657;51.204;-4.130;2022-11-15T06:28:06;5.22;;;1.10;;
49764;SDS011;35657;51.204;-4.130;2022-11-15T06:30:32;3.78;;;1.23;;
49764;SDS011;35657;51.204;-4.130;2022-11-15T06:32:59;13.77;;;1.98;;
49764;SDS011;35657;51.204;-4.130;2022-11-15T06:35:28;4.85;;;1.33;;
49764;SDS011;35657;51.204;-4.130;2022-11-15T06:37:55;6.65;;;1.40;;
49764;SDS011;35657;51.204;-4.130;2022-11-15T06:40:21;9.50;;;1.83;;
49764;SDS011;35657;51.204;-4.130;2022-11-15T06:42:47;4.57;;;1.40;;
49764;SDS011;35657;51.204;-4.130;2022-11-15T06:45:12;15.88;;;1.60;;
49764;SDS011;35657;51.204;-4.130;2022-11-15T06:47:45;20.25;;;3.78;;
49764;SDS011;35657;51.204;-4.130;2022-11-15T06:50:11;9.07;;;1.65;;
49764;SDS011;35657;51.204;-4.130;2022-11-15T06:52:37;9.13;;;2.85;;
49764;SDS011;35657;51.204;-4.130;2022-11-15T06:55:03;13.13;;;2.08;;
49764;SDS011;35657;51.204;-4.130;2022-11-15T06:57:29;8.13;;;2.17;;
49764;SDS011;35657;51.204;-4.130;2022-11-15T06:59:55;7.68;;;1.92;;
49764;SDS011;35657;51.204;-4.130;2022-11-15T07:02:20;18.90;;;3.97;;
49764;SDS011;35657;51.204;-4.130;2022-11-15T07:04:46;6.18;;;2.97;;
49764;SDS011;35657;51.204;-4.130;2022-11-15T07:07:12;10.18;;;2.35;;
49764;SDS011;35657;51.204;-4.130;2022-11-15T07:09:37;7.63;;;1.77;;
49764;SDS011;35657;51.204;-4.130;2022-11-15T07:12:03;13.80;;;3.30;;
49764;SDS011;35657;51.204;-4.130;2022-11-15T07:14:29;8.32;;;1.92;;
49764;SDS011;35657;51.204;-4.130;2022-11-15T07:16:55;8.88;;;2.47;;
49764;SDS011;35657;51.204;-4.130;2022-11-15T07:19:20;5.95;;;1.85;;
49764;SDS011;35657;51.204;-4.130;2022-11-15T07:21:46;15.63;;;2.03;;
49764;SDS011;35657;51.204;-4.130;2022-11-15T07:24:12;17.02;;;2.60;;
49764;SDS011;35657;51.204;-4.130;2022-11-15T07:26:38;8.48;;;1.77;;
49764;SDS011;35657;51.204;-4.130;2022-11-15T07:29:03;12.02;;;2.33;;
49764;SDS011;35657;51.204;-4.130;2022-11-15T07:31:29;5.15;;;1.17;;
49764;SDS011;35657;51.204;-4.130;2022-11-15T07:33:55;11.60;;;1.92;;
49764;SDS011;35657;51.204;-4.130;2022-11-15T07:36:21;8.73;;;1.52;;
49764;SDS011;35657;51.204;-4.130;2022-11-15T07:38:47;6.82;;;1.60;;
49764;SDS011;35657;51.204;-4.130;2022-11-15T07:41:12;4.88;;;1.42;;
49764;SDS011;35657;51.204;-4.130;2022-11-15T07:43:38;5.10;;;1.33;;
49764;SDS011;35657;51.204;-4.130;2022-11-15T07:46:04;6.18;;;1.13;;
49764;SDS011;35657;51.204;-4.130;2022-11-15T07:48:34;4.53;;;1.42;;
49764;SDS011;35657;51.204;-4.130;2022-11-15T07:51:00;8.13;;;1.35;;
49764;SDS011;35657;51.204;-4.130;2022-11-15T07:53:26;7.32;;;1.73;;
49764;SDS011;35657;51.204;-4.130;2022-11-15T07:55:52;6.47;;;0.88;;
49764;SDS011;35657;51.204;-4.130;2022-11-15T07:58:18;6.13;;;1.23;;
49764;SDS011;35657;51.204;-4.130;2022-11-15T08:00:44;5.60;;;1.30;;
49764;SDS011;35657;51.204;-4.130;2022-11-15T08:03:11;5.40;;;0.82;;
49764;SDS011;35657;51.204;-4.130;2022-11-15T08:05:39;8.75;;;2.42;;
49764;SDS011;35657;51.204;-4.130;2022-11-15T08:08:06;6.53;;;1.33;;
49764;SDS011;35657;51.204;-4.130;2022-11-15T08:10:33;4.80;;;0.95;;
49764;SDS011;35657;51.204;-4.130;2022-11-15T08:13:00;9.15;;;2.03;;
49764;SDS011;35657;51.204;-4.130;2022-11-15T08:15:28;8.15;;;1.40;;
49764;SDS011;35657;51.204;-4.130;2022-11-15T08:17:58;10.00;;;1.60;;
49764;SDS011;35657;51.204;-4.130;2022-11-15T08:20:26;7.95;;;2.17;;
49764;SDS011;35657;51.204;-4.130;2022-11-15T08:22:56;11.75;;;1.50;;
49764;SDS011;35657;51.204;-4.130;2022-11-15T08:25:23;3.80;;;0.70;;
49764;SDS011;35657;51.204;-4.130;2022-11-15T08:27:54;19.58;;;2.83;;
49764;SDS011;35657;51.204;-4.130;2022-11-15T08:30:22;2.60;;;0.60;;
49764;SDS011;35657;51.204;-4.130;2022-11-15T08:32:48;6.25;;;1.27;;
49764;SDS011;35657;51.204;-4.130;2022-11-15T08:35:15;8.18;;;1.02;;
49764;SDS011;35657;51.204;-4.130;2022-11-15T08:37:41;4.38;;;0.77;;
49764;SDS011;35657;51.204;-4.130;2022-11-15T08:40:07;9.38;;;1.70;;
49764;SDS011;35657;51.204;-4.130;2022-11-15T08:42:33;5.35;;;1.25;;
49764;SDS011;35657;51.204;-4.130;2022-11-15T08:44:59;7.85;;;0.90;;
49764;SDS011;35657;51.204;-4.130;2022-11-15T08:47:24;5.70;;;1.25;;
49764;SDS011;35657;51.204;-4.130;2022-11-15T08:49:50;10.77;;;1.50;;
49764;SDS011;35657;51.204;-4.130;2022-11-15T08:52:16;5.07;;;1.00;;
49764;SDS011;35657;51.204;-4.130;2022-11-15T08:54:41;3.78;;;1.42;;
49764;SDS011;35657;51.204;-4.130;2022-11-15T08:57:07;8.52;;;1.08;;
49764;SDS011;35657;51.204;-4.130;2022-11-15T08:59:34;6.32;;;1.35;;
49764;SDS011;35657;51.204;-4.130;2022-11-15T09:02:01;6.28;;;1.08;;
49764;SDS011;35657;51.204;-4.130;2022-11-15T09:04:27;5.15;;;1.80;;
49764;SDS011;35657;51.204;-4.130;2022-11-15T09:06:52;8.73;;;2.47;;
49764;SDS011;35657;51.204;-4.130;2022-11-15T09:09:18;9.30;;;1.92;;
49764;SDS011;35657;51.204;-4.130;2022-11-15T09:11:44;7.70;;;2.00;;
49764;SDS011;35657;51.204;-4.130;2022-11-15T09:14:10;4.80;;;1.75;;
49764;SDS011;35657;51.204;-4.130;2022-11-15T09:16:37;9.63;;;1.50;;
49764;SDS011;35657;51.204;-4.130;2022-11-15T09:19:03;5.13;;;1.27;;
49764;SDS011;35657;51.204;-4.130;2022-11-15T09:21:29;12.20;;;1.83;;
49764;SDS011;35657;51.204;-4.130;2022-11-15T09:23:55;6.10;;;1.75;;
49764;SDS011;35657;51.204;-4.130;2022-11-15T09:26:21;11.07;;;1.42;;
49764;SDS011;35657;51.204;-4.130;2022-11-15T09:28:46;4.57;;;1.08;;
49764;SDS011;35657;51.204;-4.130;2022-11-15T09:31:12;12.05;;;1.92;;
49764;SDS011;35657;51.204;-4.130;2022-11-15T09:33:38;10.73;;;1.55;;
49764;SDS011;35657;51.204;-4.130;2022-11-15T09:36:06;7.20;;;1.83;;
49764;SDS011;35657;51.204;-4.130;2022-11-15T09:38:33;7.22;;;2.10;;
49764;SDS011;35657;51.204;-4.130;2022-11-15T09:41:48;6.70;;;2.00;;
49764;SDS011;35657;51.204;-4.130;2022-11-15T09:49:20;5.47;;;1.67;;
49764;SDS011;35657;51.204;-4.130;2022-11-15T09:51:48;9.93;;;1.90;;
49764;SDS011;35657;51.204;-4.130;2022-11-15T09:54:32;9.88;;;1.75;;
49764;SDS011;35657;51.204;-4.130;2022-11-15T09:57:21;6.93;;;2.00;;
49764;SDS011;35657;51.204;-4.130;2022-11-15T10:05:49;4.10;;;1.63;;
49764;SDS011;35657;51.204;-4.130;2022-11-15T10:10:56;6.95;;;1.50;;
49764;SDS011;35657;51.204;-4.130;2022-11-15T10:13:27;13.45;;;2.08;;
49764;SDS011;35657;51.204;-4.130;2022-11-15T10:15:58;13.02;;;1.65;;
49764;SDS011;35657;51.204;-4.130;2022-11-15T10:21:18;9.55;;;1.80;;
49764;SDS011;35657;51.204;-4.130;2022-11-15T10:23:47;15.32;;;1.60;;
49764;SDS011;35657;51.204;-4.130;2022-11-15T10:26:14;5.60;;;1.55;;
49764;SDS011;35657;51.204;-4.130;2022-11-15T10:28:41;6.78;;;1.77;;
49764;SDS011;35657;51.204;-4.130;2022-11-15T10:31:27;11.50;;;3.10;;
49764;SDS011;35657;51.204;-4.130;2022-11-15T10:34:39;9.02;;;2.08;;
49764;SDS011;35657;51.204;-4.130;2022-11-15T10:36:56;17.65;;;3.10;;
49764;SDS011;35657;51.204;-4.130;2022-11-15T10:39:24;16.60;;;3.75;;
49764;SDS011;35657;51.204;-4.130;2022-11-15T10:41:50;13.07;;;2.67;;
49764;SDS011;35657;51.204;-4.130;2022-11-15T10:46:42;10.43;;;2.40;;
49764;SDS011;35657;51.204;-4.130;2022-11-15T10:49:22;6.78;;;1.45;;
49764;SDS011;35657;51.204;-4.130;2022-11-15T10:56:53;7.68;;;1.70;;
49764;SDS011;35657;51.204;-4.130;2022-11-15T10:59:23;9.23;;;2.65;;
49764;SDS011;35657;51.204;-4.130;2022-11-15T11:01:55;11.93;;;2.45;;
49764;SDS011;35657;51.204;-4.130;2022-11-15T11:04:21;8.95;;;2.85;;
49764;SDS011;35657;51.204;-4.130;2022-11-15T11:11:59;6.90;;;1.83;;
49764;SDS011;35657;51.204;-4.130;2022-11-15T11:14:27;9.88;;;1.70;;
49764;SDS011;35657;51.204;-4.130;2022-11-15T11:24:42;11.90;;;2.45;;
49764;SDS011;35657;51.204;-4.130;2022-11-15T11:29:58;7.60;;;1.77;;
49764;SDS011;35657;51.204;-4.130;2022-11-15T11:38:09;7.82;;;1.92;;
49764;SDS011;35657;51.204;-4.130;2022-11-15T11:40:44;12.75;;;1.88;;
49764;SDS011;35657;51.204;-4.130;2022-11-15T11:46:45;9.50;;;1.58;;
49764;SDS011;35657;51.204;-4.130;2022-11-15T11:48:56;9.13;;;2.83;;
49764;SDS011;35657;51.204;-4.130;2022-11-15T11:51:28;10.82;;;2.65;;
49764;SDS011;35657;51.204;-4.130;2022-11-15T11:54:05;10.57;;;2.33;;
49764;SDS011;35657;51.204;-4.130;2022-11-15T12:01:43;11.60;;;3.00;;
49764;SDS011;35657;51.204;-4.130;2022-11-15T12:07:07;8.10;;;2.95;;
49764;SDS011;35657;51.204;-4.130;2022-11-15T12:09:59;11.55;;;1.88;;
49764;SDS011;35657;51.204;-4.130;2022-11-15T12:12:39;10.68;;;1.75;;
49764;SDS011;35657;51.204;-4.130;2022-11-15T12:15:17;9.45;;;1.85;;
49764;SDS011;35657;51.204;-4.130;2022-11-15T12:17:46;8.50;;;2.05;;
49764;SDS011;35657;51.204;-4.130;2022-11-15T12:20:21;6.50;;;1.38;;
49764;SDS011;35657;51.204;-4.130;2022-11-15T12:31:40;8.60;;;1.95;;
49764;SDS011;35657;51.204;-4.130;2022-11-15T12:36:47;12.23;;;1.50;;
49764;SDS011;35657;51.204;-4.130;2022-11-15T12:39:15;3.63;;;1.42;;
49764;SDS011;35657;51.204;-4.130;2022-11-15T12:42:34;10.82;;;1.40;;
49764;SDS011;35657;51.204;-4.130;2022-11-15T12:47:23;9.52;;;2.40;;
49764;SDS011;35657;51.204;-4.130;2022-11-15T12:49:50;12.25;;;1.73;;
49764;SDS011;35657;51.204;-4.130;2022-11-15T12:52:16;16.95;;;1.67;;
49764;SDS011;35657;51.204;-4.130;2022-11-15T13:02:26;12.07;;;1.70;;
49764;SDS011;35657;51.204;-4.130;2022-11-15T13:05:56;6.82;;;1.33;;
49764;SDS011;35657;51.204;-4.130;2022-11-15T13:27:58;10.38;;;2.50;;
49764;SDS011;35657;51.204;-4.130;2022-11-15T13:30:26;10.00;;;4.60;;
49764;SDS011;35657;51.204;-4.130;2022-11-15T13:32:54;3.22;;;1.08;;
49764;SDS011;35657;51.204;-4.130;2022-11-15T13:35:22;14.65;;;1.98;;
49764;SDS011;35657;51.204;-4.130;2022-11-15T13:37:49;6.18;;;1.65;;
49764;SDS011;35657;51.204;-4.130;2022-11-15T13:40:20;6.65;;;2.55;;
49764;SDS011;35657;51.204;-4.130;2022-11-15T13:42:49;15.77;;;1.70;;
49764;SDS011;35657;51.204;-4.130;2022-11-15T13:45:16;5.30;;;1.45;;
49764;SDS011;35657;51.204;-4.130;2022-11-15T13:47:43;9.90;;;1.98;;
49764;SDS011;35657;51.204;-4.130;2022-11-15T13:50:12;10.07;;;2.35;;
49764;SDS011;35657;51.204;-4.130;2022-11-15T13:52:39;15.32;;;1.98;;
49764;SDS011;35657;51.204;-4.130;2022-11-15T14:00:21;10.57;;;2.40;;
49764;SDS011;35657;51.204;-4.130;2022-11-15T14:02:53;10.75;;;2.97;;
49764;SDS011;35657;51.204;-4.130;2022-11-15T14:05:21;10.75;;;3.03;;
49764;SDS011;35657;51.204;-4.130;2022-11-15T14:08:32;6.65;;;2.00;;
49764;SDS011;35657;51.204;-4.130;2022-11-15T14:10:40;6.60;;;1.65;;
49764;SDS011;35657;51.204;-4.130;2022-11-15T14:16:12;8.60;;;1.70;;
49764;SDS011;35657;51.204;-4.130;2022-11-15T14:18:52;7.68;;;1.40;;
49764;SDS011;35657;51.204;-4.130;2022-11-15T14:21:19;2.63;;;0.88;;
49764;SDS011;35657;51.204;-4.130;2022-11-15T14:23:45;10.63;;;1.58;;
49764;SDS011;35657;51.204;-4.130;2022-11-15T14:26:26;7.70;;;1.90;;
49764;SDS011;35657;51.204;-4.130;2022-11-15T14:28:52;5.47;;;1.63;;
49764;SDS011;35657;51.204;-4.130;2022-11-15T14:31:17;3.75;;;0.80;;
49764;SDS011;35657;51.204;-4.130;2022-11-15T14:33:44;4.53;;;1.15;;
49764;SDS011;35657;51.204;-4.130;2022-11-15T14:38:36;7.57;;;1.38;;
49764;SDS011;35657;51.204;-4.130;2022-11-15T14:41:01;5.53;;;1.10;;
49764;SDS011;35657;51.204;-4.130;2022-11-15T14:43:27;4.50;;;1.48;;
49764;SDS011;35657;51.204;-4.130;2022-11-15T14:45:53;6.55;;;1.27;;
49764;SDS011;35657;51.204;-4.130;2022-11-15T14:48:19;4.10;;;1.10;;
49764;SDS011;35657;51.204;-4.130;2022-11-15T14:50:45;2.67;;;0.93;;
49764;SDS011;35657;51.204;-4.130;2022-11-15T14:53:17;2.95;;;1.23;;
49764;SDS011;35657;51.204;-4.130;2022-11-15T14:55:43;4.60;;;1.38;;
49764;SDS011;35657;51.204;-4.130;2022-11-15T14:58:09;5.40;;;1.10;;
49764;SDS011;35657;51.204;-4.130;2022-11-15T15:00:39;3.03;;;1.02;;
49764;SDS011;35657;51.204;-4.130;2022-11-15T15:03:06;6.82;;;1.60;;
49764;SDS011;35657;51.204;-4.130;2022-11-15T15:05:36;3.80;;;1.50;;
49764;SDS011;35657;51.204;-4.130;2022-11-15T15:08:04;3.88;;;1.15;;
49764;SDS011;35657;51.204;-4.130;2022-11-15T15:10:31;3.70;;;1.02;;
49764;SDS011;35657;51.204;-4.130;2022-11-15T15:13:02;7.32;;;1.25;;
49764;SDS011;35657;51.204;-4.130;2022-11-15T15:15:35;4.88;;;2.00;;
49764;SDS011;35657;51.204;-4.130;2022-11-15T15:18:04;3.05;;;1.08;;
49764;SDS011;35657;51.204;-4.130;2022-11-15T15:20:33;5.82;;;1.33;;
49764;SDS011;35657;51.204;-4.130;2022-11-15T15:23:00;8.73;;;1.92;;
49764;SDS011;35657;51.204;-4.130;2022-11-15T15:25:27;7.38;;;1.13;;
49764;SDS011;35657;51.204;-4.130;2022-11-15T15:27:55;2.88;;;1.38;;
49764;SDS011;35657;51.204;-4.130;2022-11-15T15:30:21;6.03;;;1.60;;
49764;SDS011;35657;51.204;-4.130;2022-11-15T15:32:48;4.15;;;0.95;;
49764;SDS011;35657;51.204;-4.130;2022-11-15T15:35:14;3.80;;;1.35;;
49764;SDS011;35657;51.204;-4.130;2022-11-15T15:37:41;4.35;;;1.02;;
49764;SDS011;35657;51.204;-4.130;2022-11-15T15:40:18;6.93;;;1.40;;
49764;SDS011;35657;51.204;-4.130;2022-11-15T15:42:46;9.80;;;2.30;;
49764;SDS011;35657;51.204;-4.130;2022-11-15T15:45:13;10.40;;;1.35;;
49764;SDS011;35657;51.204;-4.130;2022-11-15T15:47:40;5.72;;;1.63;;
49764;SDS011;35657;51.204;-4.130;2022-11-15T15:53:14;8.02;;;3.65;;
49764;SDS011;35657;51.204;-4.130;2022-11-15T15:55:40;9.88;;;3.75;;
49764;SDS011;35657;51.204;-4.130;2022-11-15T15:58:06;13.95;;;5.90;;
49764;SDS011;35657;51.204;-4.130;2022-11-15T16:00:33;11.80;;;6.65;;
49764;SDS011;35657;51.204;-4.130;2022-11-15T16:02:58;11.85;;;5.40;;
49764;SDS011;35657;51.204;-4.130;2022-11-15T16:05:24;11.07;;;4.65;;
49764;SDS011;35657;51.204;-4.130;2022-11-15T16:07:50;11.07;;;4.75;;
49764;SDS011;35657;51.204;-4.130;2022-11-15T16:12:50;5.38;;;3.35;;
49764;SDS011;35657;51.204;-4.130;2022-11-15T16:15:16;8.48;;;4.25;;
49764;SDS011;35657;51.204;-4.130;2022-11-15T16:17:53;5.32;;;2.97;;
49764;SDS011;35657;51.204;-4.130;2022-11-15T16:20:22;5.90;;;2.70;;
49764;SDS011;35657;51.204;-4.130;2022-11-15T16:22:56;5.85;;;1.92;;
49764;SDS011;35657;51.204;-4.130;2022-11-15T16:25:23;7.32;;;2.08;;
49764;SDS011;35657;51.204;-4.130;2022-11-15T16:27:49;7.05;;;2.90;;
49764;SDS011;35657;51.204;-4.130;2022-11-15T16:30:16;8.50;;;2.38;;
49764;SDS011;35657;51.204;-4.130;2022-11-15T16:32:43;7.30;;;2.75;;
49764;SDS011;35657;51.204;-4.130;2022-11-15T16:35:12;4.95;;;2.05;;
49764;SDS011;35657;51.204;-4.130;2022-11-15T16:37:39;5.25;;;1.80;;
49764;SDS011;35657;51.204;-4.130;2022-11-15T16:40:27;3.97;;;1.90;;
49764;SDS011;35657;51.204;-4.130;2022-11-15T16:42:58;6.65;;;1.80;;
49764;SDS011;35657;51.204;-4.130;2022-11-15T16:45:26;4.43;;;1.63;;
49764;SDS011;35657;51.204;-4.130;2022-11-15T16:47:53;4.43;;;1.40;;
49764;SDS011;35657;51.204;-4.130;2022-11-15T16:52:52;9.15;;;2.50;;
49764;SDS011;35657;51.204;-4.130;2022-11-15T16:55:20;4.72;;;1.67;;
49764;SDS011;35657;51.204;-4.130;2022-11-15T16:57:47;2.70;;;1.48;;
49764;SDS011;35657;51.204;-4.130;2022-11-15T17:00:13;4.28;;;1.60;;
49764;SDS011;35657;51.204;-4.130;2022-11-15T17:02:44;7.07;;;1.80;;
49764;SDS011;35657;51.204;-4.130;2022-11-15T17:05:12;6.60;;;1.80;;
49764;SDS011;35657;51.204;-4.130;2022-11-15T17:07:39;6.63;;;1.80;;
49764;SDS011;35657;51.204;-4.130;2022-11-15T17:23:43;10.05;;;1.77;;
49764;SDS011;35657;51.204;-4.130;2022-11-15T17:26:10;7.88;;;2.67;;
49764;SDS011;35657;51.204;-4.130;2022-11-15T17:28:38;6.95;;;3.67;;
49764;SDS011;35657;51.204;-4.130;2022-11-15T17:31:07;11.40;;;4.50;;
49764;SDS011;35657;51.204;-4.130;2022-11-15T17:33:35;8.57;;;3.53;;
49764;SDS011;35657;51.204;-4.130;2022-11-15T17:36:02;6.50;;;2.30;;
49764;SDS011;35657;51.204;-4.130;2022-11-15T17:38:30;10.20;;;4.28;;
49764;SDS011;35657;51.204;-4.130;2022-11-15T17:41:03;6.97;;;4.68;;
49764;SDS011;35657;51.204;-4.130;2022-11-15T17:43:39;6.78;;;3.03;;
49764;SDS011;35657;51.204;-4.130;2022-11-15T17:46:15;6.95;;;2.05;;